Time;durP1;ratioP1;P1;durP2;ratioP2;P2;SDS_P1;SDS_P2;PMS_P1;PMS_P2;Temp;Humidity;BMP_temperature;BMP_pressure;BME280_temperature;BME280_humidity;BME280_pressure;Samples;Min_cycle;Max_cycle;Signal;HPM_P1;HPM_P2
2023/07/04 00:03:27;;;;;;;12.13;2.62;;;16.70;99.90;;;;;;7366544;32;20213;-56
2023/07/04 00:07:31;;;;;;;8.50;2.10;;;16.70;99.90;;;;;;7376337;32;20103;-57
2023/07/04 00:11:33;;;;;;;7.65;1.87;;;16.70;99.90;;;;;;7382339;32;20123;-57
2023/07/04 00:15:35;;;;;;;7.18;1.87;;;16.60;99.90;;;;;;7371605;32;20448;-57
2023/07/04 00:19:39;;;;;;;6.87;2.42;;;16.60;99.90;;;;;;7370174;32;20098;-56
2023/07/04 00:23:45;;;;;;;9.52;2.40;;;16.60;99.90;;;;;;7377961;32;20130;-57
2023/07/04 00:27:49;;;;;;;9.95;2.20;;;16.50;99.90;;;;;;7371620;32;20121;-57
2023/07/04 00:31:50;;;;;;;11.73;2.42;;;16.50;99.90;;;;;;7366889;32;20111;-57
2023/07/04 00:36:04;;;;;;;13.62;2.67;;;16.50;99.90;;;;;;7377466;32;20141;-57
2023/07/04 00:40:11;;;;;;;9.07;2.50;;;16.40;99.90;;;;;;7369617;32;20472;-56
2023/07/04 00:44:22;;;;;;;9.95;2.15;;;16.30;99.90;;;;;;7367667;32;20783;-57
2023/07/04 00:48:23;;;;;;;8.02;2.40;;;16.20;99.90;;;;;;7365393;32;20456;-57
2023/07/04 00:52:33;;;;;;;10.07;2.67;;;16.20;99.90;;;;;;7379346;32;20723;-57
2023/07/04 00:56:34;;;;;;;13.40;2.67;;;16.20;99.90;;;;;;7375611;32;20411;-57
2023/07/04 01:00:37;;;;;;;10.48;2.60;;;16.10;99.90;;;;;;7372168;32;20221;-57
2023/07/04 01:04:39;;;;;;;13.55;3.28;;;16.10;99.90;;;;;;7367019;32;20156;-57
2023/07/04 01:08:44;;;;;;;12.37;2.80;;;16.10;99.90;;;;;;7360700;32;20287;-58
2023/07/04 01:12:46;;;;;;;12.85;2.22;;;16.00;99.90;;;;;;7379793;32;20129;-56
2023/07/04 01:16:49;;;;;;;11.38;2.60;;;15.90;99.90;;;;;;7381052;32;20125;-56
2023/07/04 01:20:52;;;;;;;13.77;2.30;;;15.80;99.90;;;;;;7361075;32;20183;-56
2023/07/04 01:25:04;;;;;;;11.70;2.55;;;15.80;99.90;;;;;;7378396;32;20199;-57
2023/07/04 01:29:10;;;;;;;10.30;2.55;;;15.70;99.90;;;;;;7369857;32;20194;-57
2023/07/04 01:33:13;;;;;;;10.73;2.72;;;15.70;99.90;;;;;;7377176;32;20126;-57
2023/07/04 01:37:16;;;;;;;9.45;2.58;;;15.60;99.90;;;;;;7378265;32;20748;-56
2023/07/04 01:41:19;;;;;;;9.68;2.50;;;15.60;99.90;;;;;;7373839;32;20152;-57
2023/07/04 01:45:21;;;;;;;10.70;3.28;;;15.60;99.90;;;;;;7381639;32;20273;-56
2023/07/04 01:49:23;;;;;;;11.40;2.28;;;15.50;99.90;;;;;;7379220;32;20129;-56
2023/07/04 01:53:25;;;;;;;14.15;2.72;;;15.50;99.90;;;;;;7381188;32;20114;-56
2023/07/04 01:57:27;;;;;;;16.83;2.90;;;15.40;99.90;;;;;;7382545;32;20224;-57
2023/07/04 02:01:28;;;;;;;11.52;2.50;;;15.40;99.90;;;;;;7379060;32;20178;-56
2023/07/04 02:05:31;;;;;;;15.55;2.72;;;15.30;99.90;;;;;;7376018;32;20140;-56
2023/07/04 02:09:33;;;;;;;11.73;3.00;;;15.30;99.90;;;;;;7362981;32;20230;-57
2023/07/04 02:13:35;;;;;;;10.90;2.58;;;15.30;99.90;;;;;;7379792;32;20130;-57
2023/07/04 02:17:37;;;;;;;16.37;3.00;;;15.20;99.90;;;;;;7375553;32;20194;-58
2023/07/04 02:21:39;;;;;;;12.65;3.40;;;15.20;99.90;;;;;;7376324;32;20111;-56
2023/07/04 02:25:41;;;;;;;11.63;2.95;;;15.20;99.90;;;;;;7378912;32;20190;-57
2023/07/04 02:29:46;;;;;;;11.38;2.58;;;15.10;99.90;;;;;;7379349;32;20130;-58
2023/07/04 02:33:48;;;;;;;14.80;2.80;;;15.00;99.90;;;;;;7376854;32;20130;-57
2023/07/04 02:37:50;;;;;;;12.45;3.00;;;15.00;99.90;;;;;;7371533;32;20193;-57
2023/07/04 02:41:51;;;;;;;18.33;3.00;;;15.10;99.90;;;;;;7380340;32;20575;-56
2023/07/04 02:45:53;;;;;;;10.00;2.70;;;14.90;99.90;;;;;;7373239;32;20111;-56
2023/07/04 02:49:55;;;;;;;13.48;2.87;;;15.00;99.90;;;;;;7379678;32;20111;-57
2023/07/04 02:53:57;;;;;;;13.27;3.08;;;15.00;99.90;;;;;;7378056;32;20135;-56
2023/07/04 02:57:58;;;;;;;12.73;3.08;;;15.00;99.90;;;;;;7382075;32;20149;-56
2023/07/04 03:02:00;;;;;;;13.43;2.80;;;15.00;99.90;;;;;;7372789;32;20125;-56
2023/07/04 03:06:02;;;;;;;13.77;3.05;;;15.00;99.90;;;;;;7374363;32;20224;-56
2023/07/04 03:10:04;;;;;;;10.50;2.90;;;14.90;99.90;;;;;;7371431;32;20521;-57
2023/07/04 03:14:06;;;;;;;13.23;3.35;;;14.80;99.90;;;;;;7371874;32;20118;-56
2023/07/04 03:18:08;;;;;;;10.50;2.78;;;14.80;99.90;;;;;;7377838;32;20148;-56
2023/07/04 03:22:10;;;;;;;13.93;2.50;;;14.80;99.90;;;;;;7370544;32;20124;-57
2023/07/04 03:26:12;;;;;;;11.65;2.70;;;14.70;99.90;;;;;;7374988;32;20281;-58
2023/07/04 03:30:15;;;;;;;17.55;3.47;;;14.70;99.90;;;;;;7364780;32;20133;-57
2023/07/04 03:34:17;;;;;;;21.83;3.28;;;14.80;99.90;;;;;;7373033;32;20202;-56
2023/07/04 03:38:18;;;;;;;19.87;3.67;;;14.70;99.90;;;;;;7363938;32;20214;-56
2023/07/04 03:42:20;;;;;;;15.23;3.12;;;14.70;99.90;;;;;;7375783;32;20174;-58
2023/07/04 03:46:22;;;;;;;16.08;3.30;;;14.70;99.90;;;;;;7361493;32;20099;-56
2023/07/04 03:50:23;;;;;;;17.42;3.45;;;14.60;99.90;;;;;;7372456;32;20493;-56
2023/07/04 03:54:25;;;;;;;18.90;3.78;;;14.60;99.90;;;;;;7361273;32;20417;-56
2023/07/04 03:58:27;;;;;;;9.38;3.15;;;14.60;99.90;;;;;;7366955;32;20224;-56
2023/07/04 04:02:29;;;;;;;14.65;3.05;;;14.60;99.90;;;;;;7366811;32;20624;-56
2023/07/04 04:06:30;;;;;;;15.88;3.83;;;14.60;99.90;;;;;;7363936;32;20112;-57
2023/07/04 04:10:32;;;;;;;14.60;3.40;;;14.60;99.90;;;;;;7372480;32;20302;-57
2023/07/04 04:14:36;;;;;;;12.85;3.10;;;14.60;99.90;;;;;;7375938;32;20133;-57
2023/07/04 04:18:37;;;;;;;14.05;3.67;;;14.70;99.90;;;;;;7372722;32;20187;-56
2023/07/04 04:22:44;;;;;;;14.23;3.33;;;14.70;99.90;;;;;;7368800;32;20504;-57
2023/07/04 04:26:47;;;;;;;13.80;3.60;;;14.70;99.90;;;;;;7362119;32;20103;-56
2023/07/04 04:30:48;;;;;;;14.65;3.05;;;14.70;99.90;;;;;;7367921;32;20474;-56
2023/07/04 04:34:50;;;;;;;17.30;3.67;;;14.70;99.90;;;;;;7375816;32;20135;-57
2023/07/04 04:38:52;;;;;;;19.65;3.42;;;14.80;99.90;;;;;;7375059;32;20547;-57
2023/07/04 04:42:55;;;;;;;19.92;3.53;;;14.80;99.90;;;;;;7376419;32;20115;-58
2023/07/04 04:46:58;;;;;;;13.43;3.25;;;14.90;99.90;;;;;;7362834;32;20217;-57
2023/07/04 04:51:07;;;;;;;13.80;3.37;;;15.00;99.90;;;;;;7367587;32;20151;-58
2023/07/04 04:55:09;;;;;;;17.90;3.37;;;15.10;99.90;;;;;;7371383;32;20134;-57
2023/07/04 04:59:12;;;;;;;20.50;3.67;;;15.10;99.90;;;;;;7371754;32;20523;-57
2023/07/04 05:03:13;;;;;;;21.80;3.53;;;15.20;99.90;;;;;;7362778;32;20155;-58
2023/07/04 05:07:15;;;;;;;15.63;3.28;;;15.30;99.90;;;;;;7378416;32;20106;-57
2023/07/04 05:11:18;;;;;;;18.55;3.40;;;15.50;99.90;;;;;;7365100;32;20214;-58
2023/07/04 05:15:19;;;;;;;19.17;4.00;;;15.70;99.90;;;;;;7379002;32;20111;-57
2023/07/04 05:19:21;;;;;;;16.52;3.85;;;15.60;99.90;;;;;;7377984;32;20183;-57
2023/07/04 05:23:23;;;;;;;18.27;3.70;;;15.60;99.90;;;;;;7375938;32;20147;-58
2023/07/04 05:27:25;;;;;;;12.20;3.22;;;15.40;99.90;;;;;;7368237;32;20262;-58
2023/07/04 05:31:28;;;;;;;16.10;3.80;;;15.60;99.90;;;;;;7375187;32;20164;-57
2023/07/04 05:35:30;;;;;;;20.23;3.90;;;15.70;99.90;;;;;;7373292;32;20112;-58
2023/07/04 05:39:32;;;;;;;13.80;3.10;;;15.60;99.90;;;;;;7372410;32;20110;-58
2023/07/04 05:43:34;;;;;;;20.30;3.87;;;15.60;99.90;;;;;;7374186;32;20126;-58
2023/07/04 05:47:36;;;;;;;21.92;3.85;;;15.80;99.90;;;;;;7372325;32;20122;-57
2023/07/04 05:51:38;;;;;;;13.27;3.28;;;16.20;99.90;;;;;;7377174;32;20119;-58
2023/07/04 05:55:39;;;;;;;17.05;3.70;;;16.40;99.90;;;;;;7373124;32;20234;-59
2023/07/04 05:59:41;;;;;;;17.60;3.65;;;16.40;99.90;;;;;;7373935;32;20118;-58
2023/07/04 06:03:43;;;;;;;16.62;3.10;;;16.40;99.90;;;;;;7372130;32;20107;-58
2023/07/04 06:07:45;;;;;;;15.35;3.65;;;16.50;99.90;;;;;;7379983;32;20107;-58
2023/07/04 06:11:48;;;;;;;20.35;4.53;;;16.50;99.90;;;;;;7375575;32;20265;-57
2023/07/04 06:15:50;;;;;;;18.35;4.18;;;16.50;99.90;;;;;;7370426;32;20264;-58
2023/07/04 06:19:52;;;;;;;14.60;3.80;;;16.40;99.90;;;;;;7380111;32;20103;-58
2023/07/04 06:23:56;;;;;;;14.43;3.28;;;16.50;99.90;;;;;;7373549;32;20157;-58
2023/07/04 06:27:58;;;;;;;16.05;3.80;;;16.70;99.90;;;;;;7366192;32;20232;-57
2023/07/04 06:31:59;;;;;;;22.33;4.05;;;17.10;99.90;;;;;;7379203;32;20116;-58
2023/07/04 06:36:02;;;;;;;9.68;3.25;;;17.10;99.90;;;;;;7375850;32;20203;-58
2023/07/04 06:40:04;;;;;;;23.30;3.55;;;17.30;99.90;;;;;;7371598;32;20172;-59
2023/07/04 06:44:06;;;;;;;17.08;3.55;;;17.40;99.90;;;;;;7374934;32;20155;-58
2023/07/04 06:48:08;;;;;;;15.77;4.65;;;17.30;99.90;;;;;;7374556;32;20190;-58
2023/07/04 06:52:10;;;;;;;20.02;4.25;;;17.50;99.90;;;;;;7374959;32;20115;-58
2023/07/04 06:56:30;;;;;;;13.43;3.58;;;17.50;99.90;;;;;;7376512;32;20235;-58
2023/07/04 07:00:32;;;;;;;14.93;3.67;;;17.90;99.90;;;;;;7369875;32;20470;-58
2023/07/04 07:04:34;;;;;;;12.30;3.22;;;17.70;99.90;;;;;;7370906;32;20268;-57
2023/07/04 07:08:37;;;;;;;12.25;3.67;;;17.70;99.90;;;;;;7367157;32;20499;-58
2023/07/04 07:12:39;;;;;;;12.80;3.80;;;18.30;99.90;;;;;;7367768;32;20152;-58
2023/07/04 07:16:40;;;;;;;14.32;3.62;;;18.20;99.90;;;;;;7372836;32;20107;-58
2023/07/04 07:20:43;;;;;;;15.05;3.90;;;17.90;99.90;;;;;;7375605;32;20123;-58
2023/07/04 07:24:44;;;;;;;14.98;3.30;;;17.80;99.90;;;;;;7368396;32;20139;-58
2023/07/04 07:28:46;;;;;;;9.32;3.22;;;18.40;99.90;;;;;;7368679;32;20144;-58
2023/07/04 07:32:49;;;;;;;13.25;3.55;;;19.10;99.90;;;;;;7375956;32;20140;-58
2023/07/04 07:36:50;;;;;;;12.27;2.75;;;19.60;99.90;;;;;;7373570;32;20225;-58
2023/07/04 07:40:53;;;;;;;11.68;2.80;;;19.30;99.90;;;;;;7367999;32;20270;-58
2023/07/04 07:44:55;;;;;;;11.43;2.40;;;19.10;99.90;;;;;;7365521;32;20111;-58
2023/07/04 07:48:57;;;;;;;13.45;3.00;;;19.10;99.90;;;;;;7369713;32;20491;-57
2023/07/04 07:52:59;;;;;;;8.32;2.22;;;18.80;99.90;;;;;;7369169;32;20107;-59
2023/07/04 07:57:01;;;;;;;12.70;3.12;;;18.50;99.90;;;;;;7373413;32;20557;-58
2023/07/04 08:01:13;;;;;;;12.55;3.10;;;18.70;99.90;;;;;;7371976;32;20483;-58
2023/07/04 08:05:15;;;;;;;9.48;2.62;;;19.00;99.90;;;;;;7363760;32;20107;-58
2023/07/04 08:09:19;;;;;;;12.93;3.00;;;19.10;99.90;;;;;;7373828;32;20548;-57
2023/07/04 08:13:21;;;;;;;15.55;3.10;;;19.20;99.90;;;;;;7381797;32;20177;-58
2023/07/04 08:17:22;;;;;;;10.18;2.67;;;19.20;99.90;;;;;;7376918;32;20114;-59
2023/07/04 08:21:26;;;;;;;13.98;2.70;;;18.90;99.90;;;;;;7378100;32;20130;-58
2023/07/04 08:25:28;;;;;;;8.48;2.47;;;18.90;99.90;;;;;;7381730;32;20217;-58
2023/07/04 08:29:30;;;;;;;11.55;2.80;;;19.10;99.90;;;;;;7382306;32;20115;-58
2023/07/04 08:33:32;;;;;;;16.75;2.78;;;19.30;99.90;;;;;;7367566;32;20158;-58
2023/07/04 08:37:34;;;;;;;8.45;2.53;;;19.50;99.90;;;;;;7382783;32;20107;-58
2023/07/04 08:41:42;;;;;;;10.73;2.55;;;19.70;99.90;;;;;;7379085;32;20190;-58
2023/07/04 08:45:44;;;;;;;11.27;2.72;;;19.70;99.90;;;;;;7382660;32;20153;-57
2023/07/04 08:49:51;;;;;;;8.23;2.28;;;20.00;99.90;;;;;;7380519;32;20107;-58
2023/07/04 08:53:58;;;;;;;13.35;2.53;;;20.10;99.90;;;;;;7381334;32;20243;-58
2023/07/04 08:58:02;;;;;;;11.27;2.62;;;20.50;99.90;;;;;;7381188;32;20111;-58
2023/07/04 09:02:26;;;;;;;6.47;1.92;;;20.90;99.90;;;;;;7381466;32;20165;-59
2023/07/04 09:06:44;;;;;;;8.00;1.75;;;21.30;99.90;;;;;;7381748;32;20198;-58
2023/07/04 09:10:51;;;;;;;8.32;1.77;;;21.70;99.90;;;;;;7377758;32;20147;-58
2023/07/04 09:15:05;;;;;;;7.15;1.87;;;21.80;99.90;;;;;;7379950;32;20249;-58
2023/07/04 09:19:09;;;;;;;10.13;2.05;;;21.50;99.90;;;;;;7381042;32;20111;-58
2023/07/04 09:23:14;;;;;;;8.52;1.95;;;21.20;99.90;;;;;;7380068;32;20106;-58
2023/07/04 09:27:16;;;;;;;8.70;2.25;;;20.60;99.90;;;;;;7380912;32;20147;-57
2023/07/04 09:31:21;;;;;;;7.40;2.10;;;20.80;99.90;;;;;;7381439;32;20208;-57
2023/07/04 09:35:23;;;;;;;9.40;2.33;;;21.30;99.90;;;;;;7373680;32;20778;-58
2023/07/04 09:39:44;;;;;;;9.40;2.00;;;21.10;99.90;;;;;;7380038;32;20129;-58
2023/07/04 09:44:09;;;;;;;10.27;2.30;;;21.80;99.90;;;;;;7382308;32;20107;-58
2023/07/04 09:48:11;;;;;;;11.98;2.60;;;22.10;99.90;;;;;;7368709;32;20223;-59
2023/07/04 09:52:13;;;;;;;15.32;2.92;;;21.90;99.90;;;;;;7380832;32;20116;-58
2023/07/04 09:56:27;;;;;;;9.75;2.17;;;22.60;99.90;;;;;;7380898;32;20157;-58
2023/07/04 10:00:28;;;;;;;9.18;2.22;;;22.90;99.90;;;;;;7378070;32;20522;-58
2023/07/04 10:04:35;;;;;;;7.35;2.33;;;23.50;99.90;;;;;;7385431;32;20157;-57
2023/07/04 10:08:51;;;;;;;7.60;2.50;;;23.80;99.90;;;;;;7386613;32;20182;-57
2023/07/04 10:12:53;;;;;;;10.77;2.22;;;23.50;99.90;;;;;;7382019;32;20099;-57
2023/07/04 10:16:54;;;;;;;7.20;2.00;;;23.80;99.20;;;;;;7386197;32;20107;-56
2023/07/04 10:20:58;;;;;;;8.07;2.00;;;23.50;95.60;;;;;;7384853;32;20469;-56
2023/07/04 10:25:09;;;;;;;7.45;1.90;;;23.80;96.70;;;;;;7384273;32;20141;-57
2023/07/04 10:29:13;;;;;;;9.27;2.00;;;23.40;97.80;;;;;;7384291;32;20111;-56
2023/07/04 10:33:21;;;;;;;8.00;2.00;;;23.40;94.40;;;;;;7383000;32;20110;-56
2023/07/04 10:37:31;;;;;;;5.87;1.90;;;23.60;94.50;;;;;;7378056;32;20221;-56
2023/07/04 10:41:38;;;;;;;10.82;2.00;;;24.20;95.70;;;;;;7375168;32;20501;-57
2023/07/04 10:45:45;;;;;;;5.85;1.37;;;23.80;95.30;;;;;;7376943;32;20103;-57
2023/07/04 10:50:07;;;;;;;9.45;1.83;;;23.10;95.20;;;;;;7380864;32;20118;-56
2023/07/04 10:54:11;;;;;;;6.72;1.83;;;23.10;93.60;;;;;;7381664;32;20198;-57
2023/07/04 10:58:19;;;;;;;8.48;1.77;;;22.90;95.60;;;;;;7385416;32;20111;-58
2023/07/04 11:02:37;;;;;;;7.55;1.73;;;22.90;95.00;;;;;;7376768;32;20264;-58
2023/07/04 11:06:43;;;;;;;5.78;1.83;;;23.10;93.70;;;;;;7385764;32;20570;-57
2023/07/04 11:10:49;;;;;;;9.00;1.80;;;22.80;93.10;;;;;;7381752;32;20149;-56
2023/07/04 11:14:57;;;;;;;4.72;1.65;;;22.60;95.00;;;;;;7383526;32;20221;-57
2023/07/04 11:19:19;;;;;;;9.27;2.22;;;22.80;96.20;;;;;;7383694;32;20305;-57
2023/07/04 11:23:23;;;;;;;8.00;2.80;;;22.90;95.10;;;;;;7382445;32;20156;-57
2023/07/04 11:27:30;;;;;;;5.62;2.33;;;22.60;96.60;;;;;;7383701;32;20129;-57
2023/07/04 11:31:32;;;;;;;8.25;2.62;;;22.90;96.50;;;;;;7378964;32;20382;-57
2023/07/04 11:35:36;;;;;;;6.35;2.55;;;23.10;96.00;;;;;;7383029;32;20145;-57
2023/07/04 11:39:38;;;;;;;9.10;2.80;;;23.30;96.60;;;;;;7382633;32;20115;-57
2023/07/04 11:43:48;;;;;;;9.10;2.10;;;23.00;95.30;;;;;;7377860;32;20257;-58
2023/07/04 11:48:02;;;;;;;9.40;2.70;;;23.10;96.70;;;;;;7377026;32;20111;-58
2023/07/04 11:52:26;;;;;;;7.82;2.67;;;23.40;94.80;;;;;;7383504;32;20106;-58
2023/07/04 11:56:30;;;;;;;8.45;2.92;;;23.50;93.40;;;;;;7377225;32;20138;-57
2023/07/04 12:00:38;;;;;;;8.32;2.87;;;23.30;94.30;;;;;;7383750;32;20125;-57
2023/07/04 12:04:40;;;;;;;6.78;2.87;;;23.40;94.80;;;;;;7378763;32;20254;-58
2023/07/04 12:08:50;;;;;;;7.60;2.80;;;23.50;94.50;;;;;;7382910;32;20139;-58
2023/07/04 12:13:02;;;;;;;8.65;2.90;;;23.90;96.50;;;;;;7378322;32;20150;-58
2023/07/04 12:17:05;;;;;;;9.02;2.95;;;24.10;95.60;;;;;;7363446;32;20699;-57
2023/07/04 12:21:09;;;;;;;6.82;3.30;;;23.30;92.80;;;;;;7381650;32;20146;-57
2023/07/04 12:25:19;;;;;;;9.05;3.25;;;23.40;95.20;;;;;;7371943;32;20114;-57
2023/07/04 12:29:21;;;;;;;9.20;3.67;;;23.60;93.90;;;;;;7380858;32;20187;-57
2023/07/04 12:33:29;;;;;;;15.15;3.70;;;23.50;93.80;;;;;;7381095;32;20106;-57
2023/07/04 12:37:39;;;;;;;8.68;3.12;;;23.30;95.60;;;;;;7380945;32;20112;-57
2023/07/04 12:41:42;;;;;;;12.13;3.62;;;23.40;94.80;;;;;;7381504;32;20577;-57
2023/07/04 12:45:44;;;;;;;6.85;3.40;;;23.40;96.70;;;;;;7382830;32;20459;-57
2023/07/04 12:49:52;;;;;;;8.98;3.53;;;23.70;96.10;;;;;;7378954;32;20129;-56
2023/07/04 12:53:57;;;;;;;10.75;3.87;;;23.80;94.50;;;;;;7379396;32;20130;-56
2023/07/04 12:57:59;;;;;;;9.40;4.00;;;23.80;93.00;;;;;;7382556;32;20265;-57
2023/07/04 13:02:11;;;;;;;14.20;4.00;;;23.30;95.10;;;;;;7378968;32;20106;-57
2023/07/04 13:06:19;;;;;;;8.70;4.05;;;23.70;94.50;;;;;;7378896;32;20133;-56
2023/07/04 13:10:29;;;;;;;9.77;4.22;;;23.30;93.10;;;;;;7378941;32;20154;-57
2023/07/04 13:14:31;;;;;;;10.27;4.32;;;23.00;93.30;;;;;;7380872;32;20107;-57
2023/07/04 13:18:39;;;;;;;11.30;5.22;;;23.00;93.70;;;;;;7381338;32;20159;-56
2023/07/04 13:22:41;;;;;;;10.05;4.15;;;23.10;92.70;;;;;;7380473;32;20305;-57
2023/07/04 13:27:14;;;;;;;7.18;4.43;;;23.10;94.80;;;;;;7378013;32;20167;-59
2023/07/04 13:31:36;;;;;;;8.48;4.65;;;23.10;92.80;;;;;;7374326;32;20134;-58
2023/07/04 13:35:41;;;;;;;8.30;4.50;;;22.70;95.00;;;;;;7382279;32;20107;-59
2023/07/04 13:39:42;;;;;;;12.13;4.93;;;22.70;93.70;;;;;;7377465;32;20499;-59
2023/07/04 13:43:47;;;;;;;10.00;4.78;;;22.70;95.70;;;;;;7385649;32;20159;-58
2023/07/04 13:48:09;;;;;;;10.27;5.03;;;22.90;93.90;;;;;;7383612;32;20532;-58
2023/07/04 13:52:11;;;;;;;12.50;5.03;;;22.80;95.50;;;;;;7386164;32;20525;-59
2023/07/04 13:56:13;;;;;;;17.05;5.50;;;22.90;94.60;;;;;;7384903;32;20729;-59
2023/07/04 14:00:15;;;;;;;10.95;5.07;;;23.10;94.70;;;;;;7386472;32;20306;-58
2023/07/04 14:04:24;;;;;;;10.75;4.80;;;23.60;93.10;;;;;;7382649;32;20117;-58
2023/07/04 14:08:32;;;;;;;11.12;4.62;;;23.60;93.00;;;;;;7384860;32;20202;-59
2023/07/04 14:12:34;;;;;;;11.18;5.12;;;23.60;93.60;;;;;;7378707;32;20606;-59
2023/07/04 14:16:36;;;;;;;11.40;5.75;;;23.30;94.80;;;;;;7384007;32;20125;-58
2023/07/04 14:21:03;;;;;;;10.23;5.18;;;23.10;93.40;;;;;;7385009;32;20107;-59
2023/07/04 14:25:06;;;;;;;9.25;5.10;;;23.30;94.10;;;;;;7383515;32;20174;-59
2023/07/04 14:29:08;;;;;;;7.37;4.75;;;23.40;95.00;;;;;;7379023;32;20151;-58
2023/07/04 14:33:10;;;;;;;8.40;4.90;;;23.30;92.90;;;;;;7379263;32;20107;-59
2023/07/04 14:37:12;;;;;;;11.20;5.47;;;23.20;92.40;;;;;;7384180;32;20130;-58
2023/07/04 14:41:13;;;;;;;11.38;4.80;;;23.30;93.20;;;;;;7383860;32;20119;-58
2023/07/04 14:45:18;;;;;;;8.57;4.87;;;23.20;92.20;;;;;;7383740;32;20465;-58
2023/07/04 14:49:22;;;;;;;11.25;4.93;;;23.00;91.80;;;;;;7384628;32;20111;-59
2023/07/04 14:53:24;;;;;;;9.43;5.00;;;23.00;93.90;;;;;;7376872;32;20226;-58
2023/07/04 14:57:26;;;;;;;10.07;5.30;;;23.10;93.80;;;;;;7385161;32;20169;-58
2023/07/04 15:01:28;;;;;;;8.57;5.12;;;23.30;95.10;;;;;;7383510;32;20179;-58
2023/07/04 15:05:30;;;;;;;8.27;4.37;;;23.60;91.10;;;;;;7385164;32;20225;-59
2023/07/04 15:09:31;;;;;;;8.40;4.97;;;23.80;91.20;;;;;;7382623;32;20153;-58
2023/07/04 15:13:33;;;;;;;10.15;4.90;;;23.60;91.60;;;;;;7377207;32;20510;-58
2023/07/04 15:17:35;;;;;;;9.20;4.90;;;23.50;94.40;;;;;;7381616;32;20129;-58
2023/07/04 15:21:37;;;;;;;11.73;5.53;;;23.20;93.90;;;;;;7376614;32;20103;-58
2023/07/04 15:25:39;;;;;;;8.43;4.80;;;23.20;92.60;;;;;;7384469;32;20801;-59
2023/07/04 15:29:40;;;;;;;12.70;5.43;;;23.10;94.20;;;;;;7382504;32;20407;-59
2023/07/04 15:33:42;;;;;;;9.10;5.05;;;23.10;95.30;;;;;;7380221;32;20257;-59
2023/07/04 15:37:44;;;;;;;9.20;5.12;;;23.10;94.60;;;;;;7382481;32;20198;-58
2023/07/04 15:41:46;;;;;;;10.57;5.18;;;23.20;92.40;;;;;;7382762;32;20091;-56
2023/07/04 15:45:52;;;;;;;14.18;5.43;;;23.10;95.40;;;;;;7377404;32;20103;-56
2023/07/04 15:49:54;;;;;;;12.02;5.30;;;23.10;94.20;;;;;;7382041;32;20572;-56
2023/07/04 15:53:56;;;;;;;8.63;4.85;;;22.90;94.70;;;;;;7375312;32;20182;-57
2023/07/04 15:57:57;;;;;;;11.20;5.20;;;22.90;95.50;;;;;;7380863;32;20166;-56
2023/07/04 16:02:00;;;;;;;9.13;5.40;;;22.90;94.50;;;;;;7376425;32;20266;-57
2023/07/04 16:06:06;;;;;;;9.75;5.05;;;22.90;93.40;;;;;;7377380;32;20477;-57
2023/07/04 16:10:08;;;;;;;12.98;5.03;;;22.90;96.10;;;;;;7371939;32;20179;-56
2023/07/04 16:14:10;;;;;;;8.77;5.70;;;22.90;96.40;;;;;;7375403;32;20773;-59
2023/07/04 16:18:12;;;;;;;15.55;5.25;;;22.90;95.20;;;;;;7376123;32;20119;-58
2023/07/04 16:22:14;;;;;;;11.32;5.03;;;22.90;96.30;;;;;;7382108;32;20118;-58
2023/07/04 16:26:17;;;;;;;8.98;5.32;;;22.60;94.00;;;;;;7381341;32;20581;-59
2023/07/04 16:30:19;;;;;;;12.77;5.55;;;22.50;96.20;;;;;;7382507;32;20107;-58
2023/07/04 16:34:20;;;;;;;13.57;5.47;;;22.50;95.90;;;;;;7379240;32;20161;-58
2023/07/04 16:38:22;;;;;;;9.88;4.87;;;22.50;94.90;;;;;;7382243;32;20167;-58
2023/07/04 16:42:26;;;;;;;10.80;5.45;;;22.50;95.80;;;;;;7376110;32;20133;-59
2023/07/04 16:46:28;;;;;;;8.98;5.37;;;22.40;97.30;;;;;;7377181;32;20135;-59
2023/07/04 16:50:31;;;;;;;7.82;4.65;;;22.40;96.50;;;;;;7373798;32;20190;-59
2023/07/04 16:54:37;;;;;;;14.85;5.30;;;22.30;96.70;;;;;;7375576;32;20116;-59
2023/07/04 16:58:39;;;;;;;8.68;4.95;;;22.10;98.00;;;;;;7363668;32;20559;-59
2023/07/04 17:02:41;;;;;;;9.55;4.72;;;22.10;98.70;;;;;;7376883;32;20201;-59
2023/07/04 17:06:42;;;;;;;7.93;4.78;;;22.10;97.30;;;;;;7367698;32;20106;-59
2023/07/04 17:10:46;;;;;;;9.70;4.97;;;22.10;96.70;;;;;;7369213;32;20103;-58
2023/07/04 17:14:48;;;;;;;9.80;5.20;;;22.10;97.60;;;;;;7381511;32;20486;-60
2023/07/04 17:18:50;;;;;;;7.53;4.80;;;22.00;98.00;;;;;;7380712;32;20207;-60
2023/07/04 17:22:51;;;;;;;10.88;4.95;;;22.00;95.30;;;;;;7371294;32;20183;-58
2023/07/04 17:26:53;;;;;;;8.65;4.50;;;21.80;98.00;;;;;;7377674;32;20133;-59
2023/07/04 17:30:56;;;;;;;9.52;5.15;;;21.70;98.80;;;;;;7368574;32;20108;-58
2023/07/04 17:34:58;;;;;;;9.15;4.57;;;21.50;99.20;;;;;;7376732;32;20102;-58
2023/07/04 17:39:00;;;;;;;7.87;4.70;;;21.60;99.40;;;;;;7375933;32;20555;-59
2023/07/04 17:43:02;;;;;;;11.65;5.07;;;21.50;99.60;;;;;;7377309;32;20136;-57
2023/07/04 17:47:04;;;;;;;7.80;5.03;;;21.40;99.90;;;;;;7382635;32;20104;-58
2023/07/04 17:51:12;;;;;;;11.73;4.80;;;21.30;99.90;;;;;;7376438;32;20167;-57
2023/07/04 17:55:14;;;;;;;9.02;4.90;;;21.10;99.90;;;;;;7377843;32;20115;-57
2023/07/04 17:59:16;;;;;;;9.02;4.80;;;20.90;99.90;;;;;;7375067;32;20433;-57
2023/07/04 18:03:17;;;;;;;11.85;5.00;;;20.80;99.90;;;;;;7366688;32;20134;-57
2023/07/04 18:07:20;;;;;;;8.18;4.82;;;20.70;99.90;;;;;;7377066;32;20503;-57
2023/07/04 18:11:27;;;;;;;10.35;4.87;;;20.60;99.90;;;;;;7378964;32;20131;-57
2023/07/04 18:15:28;;;;;;;11.50;5.30;;;20.50;99.90;;;;;;7375425;32;20147;-57
2023/07/04 18:19:30;;;;;;;12.63;5.22;;;20.40;99.90;;;;;;7381253;32;20673;-58
2023/07/04 18:23:34;;;;;;;11.02;4.95;;;20.30;99.90;;;;;;7379531;32;20564;-58
2023/07/04 18:27:36;;;;;;;9.00;4.97;;;20.20;99.90;;;;;;7378039;32;20533;-58
2023/07/04 18:31:37;;;;;;;7.87;5.07;;;20.10;99.90;;;;;;7376997;32;20621;-57
2023/07/04 18:35:39;;;;;;;8.63;5.00;;;20.00;99.90;;;;;;7376784;32;20132;-57
2023/07/04 18:39:41;;;;;;;9.27;5.10;;;19.90;99.90;;;;;;7371925;32;20194;-57
2023/07/04 18:43:43;;;;;;;12.07;5.10;;;19.80;99.90;;;;;;7377474;32;20110;-57
2023/07/04 18:47:49;;;;;;;9.10;5.18;;;19.80;99.90;;;;;;7374802;32;20107;-57
2023/07/04 18:51:56;;;;;;;11.07;5.50;;;19.60;99.90;;;;;;7374883;32;20207;-57
2023/07/04 18:55:58;;;;;;;9.95;5.40;;;19.50;99.90;;;;;;7370514;32;20558;-57
2023/07/04 18:59:59;;;;;;;12.05;5.12;;;19.50;99.90;;;;;;7377053;32;20529;-58
2023/07/04 19:04:01;;;;;;;11.18;5.60;;;19.30;99.90;;;;;;7381618;32;20278;-57
2023/07/04 19:08:03;;;;;;;11.60;5.70;;;19.00;99.90;;;;;;7373540;32;20099;-57
2023/07/04 19:12:07;;;;;;;8.73;5.55;;;18.80;99.90;;;;;;7380872;32;20130;-57
2023/07/04 19:16:09;;;;;;;12.32;5.65;;;18.60;99.90;;;;;;7377976;32;20130;-56
2023/07/04 19:20:11;;;;;;;8.75;5.60;;;18.40;99.90;;;;;;7382658;32;20693;-56
2023/07/04 19:24:14;;;;;;;13.30;5.93;;;18.20;99.90;;;;;;7366177;32;20636;-57
2023/07/04 19:28:16;;;;;;;13.10;6.45;;;18.20;99.90;;;;;;7375363;32;20135;-56
2023/07/04 19:32:18;;;;;;;12.05;6.47;;;17.90;99.90;;;;;;7374733;32;20110;-57
2023/07/04 19:36:20;;;;;;;14.73;6.50;;;17.80;99.90;;;;;;7372046;32;20581;-57
2023/07/04 19:40:22;;;;;;;10.88;6.72;;;17.70;99.90;;;;;;7377438;32;20111;-56
2023/07/04 19:44:24;;;;;;;11.48;7.20;;;17.60;99.90;;;;;;7372144;32;20160;-56
2023/07/04 19:48:28;;;;;;;9.90;6.35;;;17.40;99.90;;;;;;7383368;32;20140;-56
2023/07/04 19:52:30;;;;;;;13.23;6.45;;;17.40;99.90;;;;;;7375614;32;20133;-57
2023/07/04 19:56:32;;;;;;;15.35;6.90;;;17.40;99.90;;;;;;7368187;32;20217;-56
2023/07/04 20:00:34;;;;;;;13.90;7.60;;;17.40;99.90;;;;;;7373647;32;20107;-57
2023/07/04 20:04:36;;;;;;;13.10;7.37;;;17.20;99.90;;;;;;7372895;32;20159;-56
2023/07/04 20:08:43;;;;;;;18.00;7.55;;;17.00;99.90;;;;;;7372353;32;20111;-55
2023/07/04 20:12:45;;;;;;;13.82;7.00;;;16.90;99.90;;;;;;7370816;32;20280;-56
2023/07/04 20:16:46;;;;;;;11.98;7.30;;;16.80;99.90;;;;;;7374929;32;20495;-55
2023/07/04 20:20:50;;;;;;;14.48;8.15;;;16.60;99.90;;;;;;7374305;32;20613;-55
2023/07/04 20:24:52;;;;;;;16.30;8.80;;;16.50;99.90;;;;;;7368564;32;20179;-55
2023/07/04 20:28:56;;;;;;;16.62;8.40;;;16.40;99.90;;;;;;7367695;32;20131;-56
2023/07/04 20:32:58;;;;;;;17.70;8.52;;;16.30;99.90;;;;;;7376420;32;20761;-55
2023/07/04 20:37:00;;;;;;;13.68;8.30;;;16.20;99.90;;;;;;7379485;32;20106;-56
2023/07/04 20:41:07;;;;;;;14.70;7.82;;;16.30;99.90;;;;;;7372753;32;20566;-55
2023/07/04 20:45:09;;;;;;;13.65;8.15;;;16.20;99.90;;;;;;7374690;32;20230;-55
2023/07/04 20:49:15;;;;;;;12.63;7.80;;;16.20;99.90;;;;;;7369602;32;20155;-56
2023/07/04 20:53:17;;;;;;;14.20;7.72;;;16.10;99.90;;;;;;7370876;32;20141;-56
2023/07/04 20:57:19;;;;;;;16.52;7.53;;;16.10;99.90;;;;;;7375076;32;20115;-56
2023/07/04 21:01:20;;;;;;;15.50;7.68;;;15.90;99.90;;;;;;7380663;32;20886;-56